sensor_id;sensor_type;location;lat;lon;timestamp;P1;durP1;ratioP1;P2;durP2;ratioP2
14015;SDS011;7083;48.854;9.158;2023-10-08T00:00:23;125.80;;;120.23;;
14015;SDS011;7083;48.854;9.158;2023-10-08T00:03:12;137.67;;;131.53;;
14015;SDS011;7083;48.854;9.158;2023-10-08T00:05:39;134.27;;;128.27;;
14015;SDS011;7083;48.854;9.158;2023-10-08T00:08:06;146.27;;;139.70;;
14015;SDS011;7083;48.854;9.158;2023-10-08T00:10:34;144.60;;;138.07;;
14015;SDS011;7083;48.854;9.158;2023-10-08T00:13:02;138.30;;;132.13;;
14015;SDS011;7083;48.854;9.158;2023-10-08T00:15:32;126.57;;;121.00;;
14015;SDS011;7083;48.854;9.158;2023-10-08T00:18:01;136.37;;;130.40;;
14015;SDS011;7083;48.854;9.158;2023-10-08T00:20:31;139.57;;;133.37;;
14015;SDS011;7083;48.854;9.158;2023-10-08T00:23:08;142.20;;;135.83;;
14015;SDS011;7083;48.854;9.158;2023-10-08T00:25:36;125.90;;;120.40;;
14015;SDS011;7083;48.854;9.158;2023-10-08T00:28:06;127.13;;;121.43;;
14015;SDS011;7083;48.854;9.158;2023-10-08T00:30:35;133.53;;;127.50;;
14015;SDS011;7083;48.854;9.158;2023-10-08T00:33:04;137.00;;;130.97;;
14015;SDS011;7083;48.854;9.158;2023-10-08T00:35:32;139.13;;;133.00;;
14015;SDS011;7083;48.854;9.158;2023-10-08T00:38:03;131.20;;;125.37;;
14015;SDS011;7083;48.854;9.158;2023-10-08T00:40:35;120.03;;;114.77;;
14015;SDS011;7083;48.854;9.158;2023-10-08T00:43:03;120.20;;;114.93;;
14015;SDS011;7083;48.854;9.158;2023-10-08T00:45:34;121.27;;;116.03;;
14015;SDS011;7083;48.854;9.158;2023-10-08T00:48:07;127.83;;;122.00;;
14015;SDS011;7083;48.854;9.158;2023-10-08T00:50:36;129.40;;;123.73;;
14015;SDS011;7083;48.854;9.158;2023-10-08T00:53:08;142.03;;;135.70;;
14015;SDS011;7083;48.854;9.158;2023-10-08T00:55:46;133.67;;;127.73;;
14015;SDS011;7083;48.854;9.158;2023-10-08T00:58:18;129.67;;;124.03;;
14015;SDS011;7083;48.854;9.158;2023-10-08T01:00:50;114.30;;;108.97;;
14015;SDS011;7083;48.854;9.158;2023-10-08T01:03:21;135.57;;;129.53;;
14015;SDS011;7083;48.854;9.158;2023-10-08T01:05:56;130.47;;;124.73;;
14015;SDS011;7083;48.854;9.158;2023-10-08T01:08:23;137.23;;;131.30;;
14015;SDS011;7083;48.854;9.158;2023-10-08T01:11:15;137.67;;;131.60;;
14015;SDS011;7083;48.854;9.158;2023-10-08T01:13:42;136.60;;;130.60;;
14015;SDS011;7083;48.854;9.158;2023-10-08T01:16:11;144.83;;;138.30;;
14015;SDS011;7083;48.854;9.158;2023-10-08T01:18:39;143.93;;;137.53;;
14015;SDS011;7083;48.854;9.158;2023-10-08T01:21:16;148.83;;;142.07;;
14015;SDS011;7083;48.854;9.158;2023-10-08T01:23:58;153.60;;;146.83;;
14015;SDS011;7083;48.854;9.158;2023-10-08T01:26:27;155.27;;;148.27;;
14015;SDS011;7083;48.854;9.158;2023-10-08T01:28:56;143.20;;;136.93;;
14015;SDS011;7083;48.854;9.158;2023-10-08T01:31:27;143.30;;;137.00;;
14015;SDS011;7083;48.854;9.158;2023-10-08T01:33:54;109.50;;;104.33;;
14015;SDS011;7083;48.854;9.158;2023-10-08T01:36:22;101.43;;;97.03;;
14015;SDS011;7083;48.854;9.158;2023-10-08T01:38:50;99.40;;;95.07;;
14015;SDS011;7083;48.854;9.158;2023-10-08T01:41:20;95.00;;;90.87;;
14015;SDS011;7083;48.854;9.158;2023-10-08T01:43:55;98.97;;;94.70;;
14015;SDS011;7083;48.854;9.158;2023-10-08T01:46:22;90.37;;;86.30;;
14015;SDS011;7083;48.854;9.158;2023-10-08T01:48:51;91.20;;;86.87;;
14015;SDS011;7083;48.854;9.158;2023-10-08T01:51:28;90.53;;;86.57;;
14015;SDS011;7083;48.854;9.158;2023-10-08T01:54:03;91.90;;;87.73;;
14015;SDS011;7083;48.854;9.158;2023-10-08T01:56:38;86.47;;;82.50;;
14015;SDS011;7083;48.854;9.158;2023-10-08T01:59:06;88.27;;;84.37;;
14015;SDS011;7083;48.854;9.158;2023-10-08T02:01:34;78.50;;;74.97;;
14015;SDS011;7083;48.854;9.158;2023-10-08T02:04:01;90.77;;;86.60;;
14015;SDS011;7083;48.854;9.158;2023-10-08T02:06:29;96.47;;;92.13;;
14015;SDS011;7083;48.854;9.158;2023-10-08T02:08:56;100.97;;;96.50;;
14015;SDS011;7083;48.854;9.158;2023-10-08T02:11:23;107.07;;;102.37;;
14015;SDS011;7083;48.854;9.158;2023-10-08T02:13:53;102.73;;;98.07;;
14015;SDS011;7083;48.854;9.158;2023-10-08T02:16:20;102.77;;;98.40;;
14015;SDS011;7083;48.854;9.158;2023-10-08T02:18:48;106.37;;;101.63;;
14015;SDS011;7083;48.854;9.158;2023-10-08T02:21:16;102.90;;;98.50;;
14015;SDS011;7083;48.854;9.158;2023-10-08T02:23:43;103.97;;;99.47;;
14015;SDS011;7083;48.854;9.158;2023-10-08T02:26:11;102.27;;;97.80;;
14015;SDS011;7083;48.854;9.158;2023-10-08T02:28:39;102.50;;;98.00;;
14015;SDS011;7083;48.854;9.158;2023-10-08T02:31:08;108.20;;;103.57;;
14015;SDS011;7083;48.854;9.158;2023-10-08T02:33:35;104.97;;;100.43;;
14015;SDS011;7083;48.854;9.158;2023-10-08T02:36:03;91.63;;;87.63;;
14015;SDS011;7083;48.854;9.158;2023-10-08T02:38:30;97.13;;;92.93;;
14015;SDS011;7083;48.854;9.158;2023-10-08T02:41:02;86.30;;;82.50;;
14015;SDS011;7083;48.854;9.158;2023-10-08T02:43:32;78.33;;;74.93;;
14015;SDS011;7083;48.854;9.158;2023-10-08T02:46:01;73.83;;;70.60;;
14015;SDS011;7083;48.854;9.158;2023-10-08T02:48:33;74.90;;;71.50;;
14015;SDS011;7083;48.854;9.158;2023-10-08T02:51:00;66.33;;;63.27;;
14015;SDS011;7083;48.854;9.158;2023-10-08T02:53:36;59.03;;;56.23;;
14015;SDS011;7083;48.854;9.158;2023-10-08T02:56:06;53.47;;;51.03;;
14015;SDS011;7083;48.854;9.158;2023-10-08T02:58:38;46.03;;;43.77;;
14015;SDS011;7083;48.854;9.158;2023-10-08T03:01:05;42.27;;;40.20;;
14015;SDS011;7083;48.854;9.158;2023-10-08T03:03:33;39.67;;;37.07;;
14015;SDS011;7083;48.854;9.158;2023-10-08T03:06:01;46.83;;;44.67;;
14015;SDS011;7083;48.854;9.158;2023-10-08T03:08:29;38.67;;;36.80;;
14015;SDS011;7083;48.854;9.158;2023-10-08T03:11:01;39.90;;;37.93;;
14015;SDS011;7083;48.854;9.158;2023-10-08T03:13:28;41.33;;;39.40;;
14015;SDS011;7083;48.854;9.158;2023-10-08T03:15:56;40.10;;;38.00;;
14015;SDS011;7083;48.854;9.158;2023-10-08T03:18:35;30.90;;;29.37;;
14015;SDS011;7083;48.854;9.158;2023-10-08T03:21:06;30.07;;;28.70;;
14015;SDS011;7083;48.854;9.158;2023-10-08T03:23:45;29.07;;;27.67;;
14015;SDS011;7083;48.854;9.158;2023-10-08T03:26:12;30.20;;;28.43;;
14015;SDS011;7083;48.854;9.158;2023-10-08T03:28:57;27.13;;;25.67;;
14015;SDS011;7083;48.854;9.158;2023-10-08T03:31:24;28.27;;;26.60;;
14015;SDS011;7083;48.854;9.158;2023-10-08T03:34:11;29.00;;;27.50;;
14015;SDS011;7083;48.854;9.158;2023-10-08T03:36:40;32.53;;;30.73;;
14015;SDS011;7083;48.854;9.158;2023-10-08T03:39:09;32.10;;;30.40;;
14015;SDS011;7083;48.854;9.158;2023-10-08T03:41:38;31.03;;;29.50;;
14015;SDS011;7083;48.854;9.158;2023-10-08T03:44:06;31.17;;;29.47;;
14015;SDS011;7083;48.854;9.158;2023-10-08T03:46:38;30.60;;;29.07;;
14015;SDS011;7083;48.854;9.158;2023-10-08T03:49:08;31.13;;;29.63;;
14015;SDS011;7083;48.854;9.158;2023-10-08T03:51:41;31.83;;;30.23;;
14015;SDS011;7083;48.854;9.158;2023-10-08T03:54:09;30.73;;;29.23;;
14015;SDS011;7083;48.854;9.158;2023-10-08T03:56:42;28.37;;;26.80;;
14015;SDS011;7083;48.854;9.158;2023-10-08T03:59:14;27.20;;;25.80;;
14015;SDS011;7083;48.854;9.158;2023-10-08T04:01:45;26.27;;;24.70;;
14015;SDS011;7083;48.854;9.158;2023-10-08T04:04:14;25.87;;;24.50;;
14015;SDS011;7083;48.854;9.158;2023-10-08T04:06:42;25.70;;;23.67;;
14015;SDS011;7083;48.854;9.158;2023-10-08T04:09:14;24.43;;;23.17;;
14015;SDS011;7083;48.854;9.158;2023-10-08T04:11:50;26.07;;;24.77;;
14015;SDS011;7083;48.854;9.158;2023-10-08T04:14:17;28.30;;;26.67;;
14015;SDS011;7083;48.854;9.158;2023-10-08T04:16:44;27.83;;;26.13;;
14015;SDS011;7083;48.854;9.158;2023-10-08T04:19:16;29.40;;;27.87;;
14015;SDS011;7083;48.854;9.158;2023-10-08T04:21:45;31.57;;;29.90;;
14015;SDS011;7083;48.854;9.158;2023-10-08T04:24:19;36.03;;;34.27;;
14015;SDS011;7083;48.854;9.158;2023-10-08T04:26:52;37.03;;;35.17;;
14015;SDS011;7083;48.854;9.158;2023-10-08T04:29:21;46.93;;;44.57;;
14015;SDS011;7083;48.854;9.158;2023-10-08T04:31:48;52.07;;;49.30;;
14015;SDS011;7083;48.854;9.158;2023-10-08T04:34:28;51.70;;;49.10;;
14015;SDS011;7083;48.854;9.158;2023-10-08T04:36:56;51.07;;;48.63;;
14015;SDS011;7083;48.854;9.158;2023-10-08T04:39:26;46.80;;;44.57;;
14015;SDS011;7083;48.854;9.158;2023-10-08T04:41:57;48.93;;;46.53;;
14015;SDS011;7083;48.854;9.158;2023-10-08T04:44:30;43.83;;;41.60;;
14015;SDS011;7083;48.854;9.158;2023-10-08T04:46:58;43.73;;;41.60;;
14015;SDS011;7083;48.854;9.158;2023-10-08T04:49:30;40.97;;;38.67;;
14015;SDS011;7083;48.854;9.158;2023-10-08T04:52:01;38.80;;;36.80;;
14015;SDS011;7083;48.854;9.158;2023-10-08T04:54:34;40.90;;;39.00;;
14015;SDS011;7083;48.854;9.158;2023-10-08T04:57:06;38.37;;;36.47;;
14015;SDS011;7083;48.854;9.158;2023-10-08T04:59:40;40.00;;;38.07;;
14015;SDS011;7083;48.854;9.158;2023-10-08T05:02:07;39.83;;;37.60;;
14015;SDS011;7083;48.854;9.158;2023-10-08T05:04:46;39.23;;;37.07;;
14015;SDS011;7083;48.854;9.158;2023-10-08T05:07:32;37.23;;;35.20;;
14015;SDS011;7083;48.854;9.158;2023-10-08T05:10:17;39.10;;;37.00;;
14015;SDS011;7083;48.854;9.158;2023-10-08T05:13:09;40.93;;;38.67;;
14015;SDS011;7083;48.854;9.158;2023-10-08T05:15:41;36.53;;;34.80;;
14015;SDS011;7083;48.854;9.158;2023-10-08T05:18:27;34.63;;;32.87;;
14015;SDS011;7083;48.854;9.158;2023-10-08T05:21:13;39.60;;;37.27;;
14015;SDS011;7083;48.854;9.158;2023-10-08T05:23:52;42.43;;;40.23;;
14015;SDS011;7083;48.854;9.158;2023-10-08T05:26:40;41.27;;;39.00;;
14015;SDS011;7083;48.854;9.158;2023-10-08T05:29:24;43.93;;;41.73;;
14015;SDS011;7083;48.854;9.158;2023-10-08T05:32:17;45.77;;;43.43;;
14015;SDS011;7083;48.854;9.158;2023-10-08T05:35:04;57.43;;;54.80;;
14015;SDS011;7083;48.854;9.158;2023-10-08T05:37:50;61.70;;;58.73;;
14015;SDS011;7083;48.854;9.158;2023-10-08T05:40:39;40.77;;;38.97;;
14015;SDS011;7083;48.854;9.158;2023-10-08T05:43:20;37.33;;;35.43;;
14015;SDS011;7083;48.854;9.158;2023-10-08T05:46:09;37.83;;;35.93;;
14015;SDS011;7083;48.854;9.158;2023-10-08T05:49:04;35.60;;;33.90;;
14015;SDS011;7083;48.854;9.158;2023-10-08T05:51:51;36.07;;;34.27;;
14015;SDS011;7083;48.854;9.158;2023-10-08T05:54:36;33.33;;;31.63;;
14015;SDS011;7083;48.854;9.158;2023-10-08T05:57:23;32.67;;;31.07;;
14015;SDS011;7083;48.854;9.158;2023-10-08T06:00:00;32.43;;;30.83;;
14015;SDS011;7083;48.854;9.158;2023-10-08T06:02:42;28.27;;;26.67;;
14015;SDS011;7083;48.854;9.158;2023-10-08T06:05:25;26.73;;;25.33;;
14015;SDS011;7083;48.854;9.158;2023-10-08T06:07:58;27.17;;;25.73;;
14015;SDS011;7083;48.854;9.158;2023-10-08T06:10:36;25.17;;;23.93;;
14015;SDS011;7083;48.854;9.158;2023-10-08T06:13:17;25.77;;;24.27;;
14015;SDS011;7083;48.854;9.158;2023-10-08T06:15:55;25.60;;;24.30;;
14015;SDS011;7083;48.854;9.158;2023-10-08T06:18:31;27.33;;;25.90;;
14015;SDS011;7083;48.854;9.158;2023-10-08T06:20:58;33.70;;;31.70;;
14015;SDS011;7083;48.854;9.158;2023-10-08T06:23:25;40.47;;;38.47;;
14015;SDS011;7083;48.854;9.158;2023-10-08T06:25:53;49.17;;;46.67;;
14015;SDS011;7083;48.854;9.158;2023-10-08T06:28:24;59.93;;;57.13;;
14015;SDS011;7083;48.854;9.158;2023-10-08T06:30:53;68.27;;;65.20;;
14015;SDS011;7083;48.854;9.158;2023-10-08T06:33:22;89.10;;;85.00;;
14015;SDS011;7083;48.854;9.158;2023-10-08T06:35:50;101.73;;;97.23;;
14015;SDS011;7083;48.854;9.158;2023-10-08T06:38:27;108.83;;;104.07;;
14015;SDS011;7083;48.854;9.158;2023-10-08T06:40:56;115.77;;;110.57;;
14015;SDS011;7083;48.854;9.158;2023-10-08T06:43:27;126.57;;;120.93;;
14015;SDS011;7083;48.854;9.158;2023-10-08T06:45:54;142.07;;;135.57;;
14015;SDS011;7083;48.854;9.158;2023-10-08T06:48:23;148.53;;;142.03;;
14015;SDS011;7083;48.854;9.158;2023-10-08T06:50:51;154.43;;;147.53;;
14015;SDS011;7083;48.854;9.158;2023-10-08T06:53:22;151.07;;;144.40;;
14015;SDS011;7083;48.854;9.158;2023-10-08T06:55:49;141.83;;;135.53;;
14015;SDS011;7083;48.854;9.158;2023-10-08T06:58:21;148.50;;;141.90;;
14015;SDS011;7083;48.854;9.158;2023-10-08T07:00:49;136.87;;;131.00;;
14015;SDS011;7083;48.854;9.158;2023-10-08T07:03:16;128.27;;;122.53;;
14015;SDS011;7083;48.854;9.158;2023-10-08T07:05:46;126.20;;;120.57;;
14015;SDS011;7083;48.854;9.158;2023-10-08T07:08:23;117.40;;;112.33;;
14015;SDS011;7083;48.854;9.158;2023-10-08T07:10:50;118.93;;;113.80;;
14015;SDS011;7083;48.854;9.158;2023-10-08T07:13:17;116.20;;;111.17;;
14015;SDS011;7083;48.854;9.158;2023-10-08T07:15:47;125.60;;;120.10;;
14015;SDS011;7083;48.854;9.158;2023-10-08T07:18:15;130.07;;;124.07;;
14015;SDS011;7083;48.854;9.158;2023-10-08T07:20:50;131.50;;;125.63;;
14015;SDS011;7083;48.854;9.158;2023-10-08T07:23:19;148.30;;;141.20;;
14015;SDS011;7083;48.854;9.158;2023-10-08T07:25:52;166.83;;;159.30;;
14015;SDS011;7083;48.854;9.158;2023-10-08T07:28:23;188.60;;;180.17;;
14015;SDS011;7083;48.854;9.158;2023-10-08T07:30:51;182.20;;;173.97;;
14015;SDS011;7083;48.854;9.158;2023-10-08T07:33:19;197.93;;;189.13;;
14015;SDS011;7083;48.854;9.158;2023-10-08T07:35:50;211.63;;;202.13;;
14015;SDS011;7083;48.854;9.158;2023-10-08T07:38:22;232.00;;;221.63;;
14015;SDS011;7083;48.854;9.158;2023-10-08T07:40:49;217.43;;;206.97;;
14015;SDS011;7083;48.854;9.158;2023-10-08T07:43:18;171.07;;;162.70;;
14015;SDS011;7083;48.854;9.158;2023-10-08T07:45:45;122.47;;;116.20;;
14015;SDS011;7083;48.854;9.158;2023-10-08T07:48:12;106.57;;;101.13;;
14015;SDS011;7083;48.854;9.158;2023-10-08T07:50:42;86.23;;;81.67;;
14015;SDS011;7083;48.854;9.158;2023-10-08T07:53:10;73.30;;;68.83;;
14015;SDS011;7083;48.854;9.158;2023-10-08T07:55:43;36.95;;;34.83;;
14015;SDS011;7083;48.854;9.158;2023-10-08T07:58:10;35.40;;;33.67;;
14015;SDS011;7083;48.854;9.158;2023-10-08T08:00:37;42.33;;;40.13;;
14015;SDS011;7083;48.854;9.158;2023-10-08T08:03:05;22.80;;;21.37;;
14015;SDS011;7083;48.854;9.158;2023-10-08T08:05:33;19.57;;;17.90;;
14015;SDS011;7083;48.854;9.158;2023-10-08T08:08:03;60.37;;;57.43;;
14015;SDS011;7083;48.854;9.158;2023-10-08T08:10:31;77.57;;;73.93;;
14015;SDS011;7083;48.854;9.158;2023-10-08T08:13:02;99.63;;;94.97;;
14015;SDS011;7083;48.854;9.158;2023-10-08T08:15:30;137.80;;;130.53;;
14015;SDS011;7083;48.854;9.158;2023-10-08T08:17:58;156.20;;;148.43;;
14015;SDS011;7083;48.854;9.158;2023-10-08T08:20:26;149.30;;;142.00;;
14015;SDS011;7083;48.854;9.158;2023-10-08T08:23:05;154.60;;;147.23;;
14015;SDS011;7083;48.854;9.158;2023-10-08T08:25:37;170.70;;;162.63;;
14015;SDS011;7083;48.854;9.158;2023-10-08T08:28:10;177.33;;;168.90;;
14015;SDS011;7083;48.854;9.158;2023-10-08T08:30:42;182.80;;;174.47;;
14015;SDS011;7083;48.854;9.158;2023-10-08T08:33:12;196.93;;;187.57;;
14015;SDS011;7083;48.854;9.158;2023-10-08T08:35:41;190.43;;;181.60;;
14015;SDS011;7083;48.854;9.158;2023-10-08T08:38:11;200.87;;;191.50;;
14015;SDS011;7083;48.854;9.158;2023-10-08T08:40:38;220.03;;;210.13;;
14015;SDS011;7083;48.854;9.158;2023-10-08T08:43:06;225.17;;;214.80;;
14015;SDS011;7083;48.854;9.158;2023-10-08T08:45:35;232.57;;;221.97;;
14015;SDS011;7083;48.854;9.158;2023-10-08T08:48:05;272.03;;;259.57;;
14015;SDS011;7083;48.854;9.158;2023-10-08T08:50:33;300.00;;;286.30;;
14015;SDS011;7083;48.854;9.158;2023-10-08T08:53:00;338.23;;;322.80;;
14015;SDS011;7083;48.854;9.158;2023-10-08T08:55:31;361.20;;;344.07;;
14015;SDS011;7083;48.854;9.158;2023-10-08T08:57:58;360.00;;;343.00;;
14015;SDS011;7083;48.854;9.158;2023-10-08T09:00:26;329.53;;;314.00;;
14015;SDS011;7083;48.854;9.158;2023-10-08T09:02:56;218.73;;;208.53;;
14015;SDS011;7083;48.854;9.158;2023-10-08T09:05:23;375.50;;;357.47;;
14015;SDS011;7083;48.854;9.158;2023-10-08T09:07:51;390.40;;;371.17;;
14015;SDS011;7083;48.854;9.158;2023-10-08T09:10:19;145.90;;;139.27;;
14015;SDS011;7083;48.854;9.158;2023-10-08T09:12:52;137.03;;;130.67;;
14015;SDS011;7083;48.854;9.158;2023-10-08T09:15:22;130.37;;;124.67;;
14015;SDS011;7083;48.854;9.158;2023-10-08T09:17:51;252.63;;;241.30;;
14015;SDS011;7083;48.854;9.158;2023-10-08T09:20:18;74.57;;;70.87;;
14015;SDS011;7083;48.854;9.158;2023-10-08T09:22:46;262.33;;;250.43;;
14015;SDS011;7083;48.854;9.158;2023-10-08T09:25:32;284.30;;;271.23;;
14015;SDS011;7083;48.854;9.158;2023-10-08T09:28:00;367.50;;;349.13;;
14015;SDS011;7083;48.854;9.158;2023-10-08T09:30:32;453.77;;;429.53;;
14015;SDS011;7083;48.854;9.158;2023-10-08T09:33:02;394.40;;;374.57;;
14015;SDS011;7083;48.854;9.158;2023-10-08T09:35:30;572.03;;;538.20;;
14015;SDS011;7083;48.854;9.158;2023-10-08T09:37:58;549.10;;;517.33;;
14015;SDS011;7083;48.854;9.158;2023-10-08T09:40:25;555.77;;;523.30;;
14015;SDS011;7083;48.854;9.158;2023-10-08T09:42:53;550.53;;;518.50;;
14015;SDS011;7083;48.854;9.158;2023-10-08T09:45:22;539.57;;;507.90;;
14015;SDS011;7083;48.854;9.158;2023-10-08T09:47:50;532.73;;;501.47;;
14015;SDS011;7083;48.854;9.158;2023-10-08T09:50:20;496.97;;;468.43;;
14015;SDS011;7083;48.854;9.158;2023-10-08T09:52:49;463.47;;;436.87;;
14015;SDS011;7083;48.854;9.158;2023-10-08T09:55:22;443.97;;;418.90;;
14015;SDS011;7083;48.854;9.158;2023-10-08T09:57:51;174.40;;;166.53;;
14015;SDS011;7083;48.854;9.158;2023-10-08T10:00:20;192.13;;;183.33;;
14015;SDS011;7083;48.854;9.158;2023-10-08T10:02:56;179.83;;;171.43;;
14015;SDS011;7083;48.854;9.158;2023-10-08T10:05:28;189.03;;;180.23;;
14015;SDS011;7083;48.854;9.158;2023-10-08T10:07:56;172.50;;;164.23;;
14015;SDS011;7083;48.854;9.158;2023-10-08T10:10:26;515.43;;;477.07;;
14015;SDS011;7083;48.854;9.158;2023-10-08T10:12:57;434.87;;;402.90;;
14015;SDS011;7083;48.854;9.158;2023-10-08T10:15:24;399.43;;;369.50;;
14015;SDS011;7083;48.854;9.158;2023-10-08T10:17:51;382.73;;;354.13;;
14015;SDS011;7083;48.854;9.158;2023-10-08T10:20:22;374.43;;;346.20;;
14015;SDS011;7083;48.854;9.158;2023-10-08T10:22:49;344.70;;;318.60;;
14015;SDS011;7083;48.854;9.158;2023-10-08T10:25:16;352.57;;;326.37;;
14015;SDS011;7083;48.854;9.158;2023-10-08T10:30:25;351.60;;;325.73;;
14015;SDS011;7083;48.854;9.158;2023-10-08T10:32:53;763.70;;;711.30;;
14015;SDS011;7083;48.854;9.158;2023-10-08T10:35:26;590.97;;;547.87;;
14015;SDS011;7083;48.854;9.158;2023-10-08T10:37:53;480.43;;;445.40;;
14015;SDS011;7083;48.854;9.158;2023-10-08T10:40:20;452.53;;;419.70;;
14015;SDS011;7083;48.854;9.158;2023-10-08T10:42:55;392.50;;;364.77;;
14015;SDS011;7083;48.854;9.158;2023-10-08T10:45:22;379.90;;;352.77;;
14015;SDS011;7083;48.854;9.158;2023-10-08T10:48:05;384.03;;;356.53;;
14015;SDS011;7083;48.854;9.158;2023-10-08T10:50:48;366.03;;;339.63;;
14015;SDS011;7083;48.854;9.158;2023-10-08T10:53:36;348.83;;;323.77;;
14015;SDS011;7083;48.854;9.158;2023-10-08T10:56:11;354.33;;;330.03;;
14015;SDS011;7083;48.854;9.158;2023-10-08T10:58:43;373.80;;;347.93;;
14015;SDS011;7083;48.854;9.158;2023-10-08T11:01:10;370.10;;;343.50;;
14015;SDS011;7083;48.854;9.158;2023-10-08T11:03:48;388.07;;;361.03;;
14015;SDS011;7083;48.854;9.158;2023-10-08T11:06:18;403.17;;;374.60;;
14015;SDS011;7083;48.854;9.158;2023-10-08T11:08:48;405.53;;;376.83;;
14015;SDS011;7083;48.854;9.158;2023-10-08T11:11:16;397.30;;;369.57;;
14015;SDS011;7083;48.854;9.158;2023-10-08T11:13:43;401.27;;;373.13;;
14015;SDS011;7083;48.854;9.158;2023-10-08T11:16:17;403.93;;;376.03;;
14015;SDS011;7083;48.854;9.158;2023-10-08T11:18:46;390.40;;;363.37;;
14015;SDS011;7083;48.854;9.158;2023-10-08T11:21:15;385.23;;;358.80;;
14015;SDS011;7083;48.854;9.158;2023-10-08T11:23:44;399.57;;;372.30;;
14015;SDS011;7083;48.854;9.158;2023-10-08T11:26:17;389.97;;;363.27;;
14015;SDS011;7083;48.854;9.158;2023-10-08T11:28:46;562.30;;;529.13;;
14015;SDS011;7083;48.854;9.158;2023-10-08T11:31:14;660.30;;;616.20;;
14015;SDS011;7083;48.854;9.158;2023-10-08T11:33:44;342.87;;;326.73;;
14015;SDS011;7083;48.854;9.158;2023-10-08T11:36:19;326.83;;;311.20;;
14015;SDS011;7083;48.854;9.158;2023-10-08T11:38:54;328.93;;;313.23;;
14015;SDS011;7083;48.854;9.158;2023-10-08T11:41:26;328.80;;;313.13;;
14015;SDS011;7083;48.854;9.158;2023-10-08T11:43:54;323.60;;;307.90;;
14015;SDS011;7083;48.854;9.158;2023-10-08T11:46:23;331.90;;;315.83;;
14015;SDS011;7083;48.854;9.158;2023-10-08T11:48:53;305.70;;;290.97;;
14015;SDS011;7083;48.854;9.158;2023-10-08T11:51:22;297.23;;;283.03;;
14015;SDS011;7083;48.854;9.158;2023-10-08T11:53:50;314.37;;;299.17;;
14015;SDS011;7083;48.854;9.158;2023-10-08T11:56:19;274.13;;;260.10;;
14015;SDS011;7083;48.854;9.158;2023-10-08T11:58:48;223.23;;;212.57;;
14015;SDS011;7083;48.854;9.158;2023-10-08T12:01:16;196.87;;;186.90;;
14015;SDS011;7083;48.854;9.158;2023-10-08T12:03:44;184.67;;;175.87;;
14015;SDS011;7083;48.854;9.158;2023-10-08T12:06:11;149.13;;;141.87;;
14015;SDS011;7083;48.854;9.158;2023-10-08T12:08:40;138.50;;;131.73;;
14015;SDS011;7083;48.854;9.158;2023-10-08T12:11:07;129.17;;;122.17;;
14015;SDS011;7083;48.854;9.158;2023-10-08T12:13:38;571.40;;;535.87;;
14015;SDS011;7083;48.854;9.158;2023-10-08T12:16:09;556.37;;;522.10;;
14015;SDS011;7083;48.854;9.158;2023-10-08T12:18:37;552.67;;;517.87;;
14015;SDS011;7083;48.854;9.158;2023-10-08T12:21:05;521.07;;;489.77;;
14015;SDS011;7083;48.854;9.158;2023-10-08T12:23:35;513.27;;;482.77;;
14015;SDS011;7083;48.854;9.158;2023-10-08T12:26:02;475.97;;;448.70;;
14015;SDS011;7083;48.854;9.158;2023-10-08T12:28:33;40.70;;;38.03;;
14015;SDS011;7083;48.854;9.158;2023-10-08T12:31:02;39.97;;;37.13;;
14015;SDS011;7083;48.854;9.158;2023-10-08T12:33:29;45.93;;;42.93;;
14015;SDS011;7083;48.854;9.158;2023-10-08T12:35:57;571.97;;;530.50;;
14015;SDS011;7083;48.854;9.158;2023-10-08T12:38:35;547.43;;;507.70;;
14015;SDS011;7083;48.854;9.158;2023-10-08T12:41:02;538.07;;;506.63;;
14015;SDS011;7083;48.854;9.158;2023-10-08T12:43:37;541.77;;;510.13;;
14015;SDS011;7083;48.854;9.158;2023-10-08T12:46:05;405.53;;;384.97;;
14015;SDS011;7083;48.854;9.158;2023-10-08T12:48:36;621.47;;;576.97;;
14015;SDS011;7083;48.854;9.158;2023-10-08T12:51:03;388.70;;;369.67;;
14015;SDS011;7083;48.854;9.158;2023-10-08T12:53:31;388.70;;;369.43;;
14015;SDS011;7083;48.854;9.158;2023-10-08T12:56:02;765.60;;;711.40;;
14015;SDS011;7083;48.854;9.158;2023-10-08T12:58:32;753.70;;;700.13;;
14015;SDS011;7083;48.854;9.158;2023-10-08T13:01:05;767.53;;;712.30;;
14015;SDS011;7083;48.854;9.158;2023-10-08T13:03:34;767.70;;;712.60;;
14015;SDS011;7083;48.854;9.158;2023-10-08T13:06:06;773.00;;;717.77;;
14015;SDS011;7083;48.854;9.158;2023-10-08T13:08:36;776.70;;;721.13;;
14015;SDS011;7083;48.854;9.158;2023-10-08T13:11:03;764.90;;;710.30;;
14015;SDS011;7083;48.854;9.158;2023-10-08T13:13:30;778.97;;;722.20;;
14015;SDS011;7083;48.854;9.158;2023-10-08T13:15:58;775.90;;;719.43;;
14015;SDS011;7083;48.854;9.158;2023-10-08T13:18:29;774.53;;;718.07;;
14015;SDS011;7083;48.854;9.158;2023-10-08T13:20:58;777.20;;;720.47;;
14015;SDS011;7083;48.854;9.158;2023-10-08T13:23:25;776.10;;;719.67;;
14015;SDS011;7083;48.854;9.158;2023-10-08T13:25:53;773.77;;;717.50;;
14015;SDS011;7083;48.854;9.158;2023-10-08T13:28:20;771.93;;;715.80;;
14015;SDS011;7083;48.854;9.158;2023-10-08T13:30:49;768.67;;;712.50;;
14015;SDS011;7083;48.854;9.158;2023-10-08T13:33:18;428.77;;;407.57;;
14015;SDS011;7083;48.854;9.158;2023-10-08T13:35:47;426.83;;;405.87;;
14015;SDS011;7083;48.854;9.158;2023-10-08T13:38:15;436.77;;;415.03;;
14015;SDS011;7083;48.854;9.158;2023-10-08T13:40:44;433.97;;;412.60;;
14015;SDS011;7083;48.854;9.158;2023-10-08T13:43:27;432.73;;;410.97;;
14015;SDS011;7083;48.854;9.158;2023-10-08T13:45:59;451.13;;;428.37;;
14015;SDS011;7083;48.854;9.158;2023-10-08T13:48:29;442.33;;;420.00;;
14015;SDS011;7083;48.854;9.158;2023-10-08T13:50:58;464.00;;;440.20;;
14015;SDS011;7083;48.854;9.158;2023-10-08T13:53:26;469.73;;;445.83;;
14015;SDS011;7083;48.854;9.158;2023-10-08T13:55:55;460.35;;;436.65;;
14015;SDS011;7083;48.854;9.158;2023-10-08T13:58:22;473.27;;;448.45;;
14015;SDS011;7083;48.854;9.158;2023-10-08T14:00:49;467.02;;;442.98;;
14015;SDS011;7083;48.854;9.158;2023-10-08T14:03:18;468.05;;;444.05;;
14015;SDS011;7083;48.854;9.158;2023-10-08T14:05:46;429.55;;;408.38;;
14015;SDS011;7083;48.854;9.158;2023-10-08T14:08:16;444.55;;;421.98;;
14015;SDS011;7083;48.854;9.158;2023-10-08T14:10:44;443.00;;;420.63;;
14015;SDS011;7083;48.854;9.158;2023-10-08T14:13:13;431.35;;;410.00;;
14015;SDS011;7083;48.854;9.158;2023-10-08T14:15:44;419.87;;;399.33;;
14015;SDS011;7083;48.854;9.158;2023-10-08T14:18:13;419.40;;;398.43;;
14015;SDS011;7083;48.854;9.158;2023-10-08T14:20:42;396.53;;;377.33;;
14015;SDS011;7083;48.854;9.158;2023-10-08T14:23:11;417.70;;;397.17;;
14015;SDS011;7083;48.854;9.158;2023-10-08T14:25:42;411.67;;;391.67;;
14015;SDS011;7083;48.854;9.158;2023-10-08T14:28:11;396.63;;;377.23;;
14015;SDS011;7083;48.854;9.158;2023-10-08T14:30:47;404.03;;;384.27;;
14015;SDS011;7083;48.854;9.158;2023-10-08T14:33:18;399.60;;;379.87;;
14015;SDS011;7083;48.854;9.158;2023-10-08T14:35:49;393.10;;;374.00;;
14015;SDS011;7083;48.854;9.158;2023-10-08T14:38:34;411.13;;;390.87;;
14015;SDS011;7083;48.854;9.158;2023-10-08T14:41:20;408.47;;;388.80;;
14015;SDS011;7083;48.854;9.158;2023-10-08T14:44:04;414.13;;;394.17;;